createdAt,value
2022-10-19T00:02:05.415Z,100137.94
2022-10-19T00:04:32.077Z,100141.41
2022-10-19T00:06:58.827Z,100144.84
2022-10-19T00:09:25.379Z,100149.88
2022-10-19T00:11:51.992Z,100147.09
2022-10-19T00:14:21.753Z,100149.94
2022-10-19T00:16:49.423Z,100155.59
2022-10-19T00:19:27.226Z,100158.06
2022-10-19T00:21:54.143Z,100155.66
2022-10-19T00:24:20.886Z,100167.75
2022-10-19T00:26:47.825Z,100167.81
2022-10-19T00:29:16.076Z,100167.31
2022-10-19T00:31:42.824Z,100165.84
2022-10-19T00:34:09.864Z,100163.88
2022-10-19T00:36:39.024Z,100166.31
2022-10-19T00:39:08.632Z,100169.66
2022-10-19T00:41:36.322Z,100167.78
2022-10-19T00:44:27.479Z,100160.66
2022-10-19T00:46:58.277Z,100164.84
2022-10-19T00:49:28.245Z,100158.84
2022-10-19T00:52:02.520Z,100156.81
2022-10-19T00:54:29.670Z,100156.03
2022-10-19T00:56:56.715Z,100158.91
2022-10-19T00:59:25.198Z,100158.91
2022-10-19T01:01:52.655Z,100165.47
2022-10-19T01:04:23.683Z,100169.97
2022-10-19T01:09:18.034Z,100163.22
2022-10-19T01:11:58.277Z,100160.38
2022-10-19T01:14:35.755Z,100156.25
2022-10-19T01:17:21.098Z,100150.94
2022-10-19T01:20:18.745Z,100145.03
2022-10-19T01:23:04.959Z,100154.34
2022-10-19T01:25:54.990Z,100150.19
2022-10-19T01:28:30.425Z,100155.22
2022-10-19T01:31:32.455Z,100155.22
2022-10-19T01:34:05.083Z,100152.41
2022-10-19T01:36:50.907Z,100156.56
2022-10-19T01:39:36.889Z,100157.44
2022-10-19T01:42:10.421Z,100148.13
2022-10-19T01:44:42.997Z,100155.59
2022-10-19T01:47:19.031Z,100161.94
2022-10-19T01:49:59.020Z,100160.41
2022-10-19T01:52:26.043Z,100150.28
2022-10-19T01:54:56.517Z,100142.38
2022-10-19T01:57:29.533Z,100159.28
2022-10-19T01:59:56.849Z,100151.09
2022-10-19T02:02:25.160Z,100156.75
2022-10-19T02:04:52.890Z,100158.34
2022-10-19T02:07:21.289Z,100153.22
2022-10-19T02:09:48.022Z,100165.75
2022-10-19T02:12:15.869Z,100166.59
2022-10-19T02:14:47.842Z,100171.63
2022-10-19T02:17:17.829Z,100163.47
2022-10-19T02:19:44.355Z,100158.97
2022-10-19T02:22:12.676Z,100163.56
2022-10-19T02:24:39.365Z,100175.41
2022-10-19T02:27:06.713Z,100166.97
2022-10-19T02:29:33.976Z,100171.06
2022-10-19T02:32:01.346Z,100157.78
2022-10-19T02:34:28.086Z,100173.06
2022-10-19T02:36:55.284Z,100162.38
2022-10-19T02:39:22.160Z,100172.50
2022-10-19T02:41:56.241Z,100177.28
2022-10-19T02:44:26.478Z,100172.50
2022-10-19T02:47:10.457Z,100169.66
2022-10-19T02:49:37.869Z,100172.13
2022-10-19T02:52:07.095Z,100173.88
2022-10-19T02:54:33.777Z,100166.75
2022-10-19T02:57:00.883Z,100168.28
2022-10-19T02:59:27.553Z,100165.56
2022-10-19T03:01:54.100Z,100161.50
2022-10-19T03:04:20.658Z,100162.19
2022-10-19T03:06:47.297Z,100161.34
2022-10-19T03:09:13.879Z,100159.13
2022-10-19T03:11:40.445Z,100151.75
2022-10-19T03:14:07.057Z,100153.38
2022-10-19T03:16:33.658Z,100152.78
2022-10-19T03:19:00.223Z,100159.22
2022-10-19T03:21:26.781Z,100160.44
2022-10-19T03:23:53.390Z,100157.00
2022-10-19T03:26:20.041Z,100149.03
2022-10-19T03:28:46.764Z,100162.25
2022-10-19T03:31:13.363Z,100156.16
2022-10-19T03:33:40.202Z,100162.31
2022-10-19T03:36:20.930Z,100158.09
2022-10-19T03:38:50.182Z,100167.78
2022-10-19T03:41:16.849Z,100161.28
2022-10-19T03:43:43.558Z,100157.84
2022-10-19T03:46:10.270Z,100150.09
2022-10-19T03:48:36.853Z,100153.75
2022-10-19T03:51:06.291Z,100149.53
2022-10-19T03:53:33.439Z,100154.47
2022-10-19T03:56:06.496Z,100152.34
2022-10-19T03:58:35.443Z,100155.81
2022-10-19T04:01:02.470Z,100149.97
2022-10-19T04:03:29.177Z,100147.38
2022-10-19T04:06:03.142Z,100135.31
2022-10-19T04:08:29.840Z,100144.84
2022-10-19T04:11:04.992Z,100152.63
2022-10-19T04:13:32.990Z,100156.63
2022-10-19T04:15:59.945Z,100155.69
2022-10-19T04:18:26.741Z,100162.91
2022-10-19T04:21:04.777Z,100167.22
2022-10-19T04:23:33.762Z,100164.34
2022-10-19T04:26:05.945Z,100165.03
2022-10-19T04:28:33.777Z,100168.94
2022-10-19T04:31:04.238Z,100167.06
2022-10-19T04:33:31.214Z,100162.34
2022-10-19T04:35:59.379Z,100159.47
2022-10-19T04:38:26.334Z,100166.25
2022-10-19T04:40:52.974Z,100171.38
2022-10-19T04:43:19.521Z,100170.44
2022-10-19T04:45:46.062Z,100164.88
2022-10-19T04:48:15.030Z,100169.00
2022-10-19T04:50:42.154Z,100159.13
2022-10-19T04:53:08.776Z,100158.50
2022-10-19T04:55:40.785Z,100152.34
2022-10-19T04:58:07.322Z,100147.19
2022-10-19T05:00:33.981Z,100149.00
2022-10-19T05:03:00.662Z,100143.66
2022-10-19T05:05:27.265Z,100145.03
2022-10-19T05:07:53.830Z,100143.72
2022-10-19T05:10:20.485Z,100147.84
2022-10-19T05:12:47.110Z,100137.59
2022-10-19T05:15:13.666Z,100140.47
2022-10-19T05:17:40.286Z,100142.50
2022-10-19T05:20:07.520Z,100145.19
2022-10-19T05:22:34.138Z,100136.44
2022-10-19T05:25:00.680Z,100136.97
2022-10-19T05:27:27.366Z,100142.47
2022-10-19T05:29:53.954Z,100137.34
2022-10-19T05:32:20.526Z,100140.41
2022-10-19T05:34:47.131Z,100139.00
2022-10-19T05:37:13.726Z,100142.41
2022-10-19T05:39:40.342Z,100139.09
2022-10-19T05:42:07.070Z,100146.34
2022-10-19T05:44:33.757Z,100137.81
2022-10-19T05:47:00.595Z,100138.13
2022-10-19T05:49:27.169Z,100133.25
2022-10-19T05:51:54.424Z,100138.00
2022-10-19T05:54:22.777Z,100138.44
2022-10-19T05:56:51.680Z,100136.88
2022-10-19T05:59:19.818Z,100147.13
2022-10-19T06:01:46.700Z,100140.63
2022-10-19T06:04:14.979Z,100149.13
2022-10-19T06:06:45.485Z,100151.75
2022-10-19T06:09:12.444Z,100150.34
2022-10-19T06:11:40.778Z,100160.34
2022-10-19T06:14:11.116Z,100156.13
2022-10-19T06:16:38.098Z,100161.59
2022-10-19T06:19:05.452Z,100158.88
2022-10-19T06:21:33.347Z,100162.69
2022-10-19T06:24:05.121Z,100157.25
2022-10-19T06:26:32.962Z,100162.84
2022-10-19T06:29:00.887Z,100163.81
2022-10-19T06:31:28.769Z,100167.06
2022-10-19T06:33:55.980Z,100164.34
2022-10-19T06:36:25.088Z,100166.59
2022-10-19T06:38:53.210Z,100175.16
2022-10-19T06:41:20.134Z,100176.47
2022-10-19T06:43:51.134Z,100174.59
2022-10-19T06:46:20.613Z,100178.13
2022-10-19T06:48:54.502Z,100190.34
2022-10-19T06:51:21.973Z,100189.50
2022-10-19T06:53:51.688Z,100193.28
2022-10-19T06:56:24.731Z,100197.16
2022-10-19T06:58:51.902Z,100197.00
2022-10-19T07:01:18.687Z,100192.44
2022-10-19T07:03:45.458Z,100197.97
2022-10-19T07:06:13.178Z,100209.81
2022-10-19T07:08:41.440Z,100206.06
2022-10-19T07:11:15.426Z,100202.63
2022-10-19T07:13:42.098Z,100206.97
2022-10-19T07:16:16.028Z,100212.16
2022-10-19T07:18:46.516Z,100215.88
2022-10-19T07:21:15.111Z,100211.34
2022-10-19T07:23:42.861Z,100212.16
2022-10-19T07:26:13.144Z,100210.63
2022-10-19T07:28:41.526Z,100210.38
2022-10-19T07:31:11.150Z,100211.63
2022-10-19T07:33:38.063Z,100219.56
2022-10-19T07:36:07.668Z,100214.59
2022-10-19T07:38:34.882Z,100209.41
2022-10-19T07:41:04.208Z,100216.53
2022-10-19T07:43:30.802Z,100222.63
2022-10-19T07:45:58.996Z,100215.78
2022-10-19T07:48:25.635Z,100214.72
2022-10-19T07:50:52.218Z,100225.06
2022-10-19T07:53:18.938Z,100210.81
2022-10-19T07:55:45.547Z,100221.09
2022-10-19T07:58:12.111Z,100210.41
2022-10-19T08:06:01.421Z,100215.72
2022-10-19T08:08:28.559Z,100212.13
2022-10-19T08:10:55.666Z,100207.66
2022-10-19T08:13:22.313Z,100199.53
2022-10-19T08:15:49.146Z,100200.06
2022-10-19T08:18:16.972Z,100203.53
2022-10-19T08:20:44.282Z,100202.31
2022-10-19T08:23:10.847Z,100205.38
2022-10-19T08:25:37.515Z,100208.28
2022-10-19T08:28:04.122Z,100209.16
2022-10-19T08:30:30.869Z,100204.41
2022-10-19T08:32:57.487Z,100204.63
2022-10-19T08:35:24.078Z,100205.66
2022-10-19T08:37:51.076Z,100212.13
2022-10-19T08:40:23.602Z,100216.84
2022-10-19T08:43:10.152Z,100211.41
2022-10-19T08:45:50.400Z,100211.44
2022-10-19T08:48:29.087Z,100214.13
2022-10-19T08:50:57.221Z,100203.13
2022-10-19T08:53:43.550Z,100210.13
2022-10-19T08:56:49.969Z,100204.94
2022-10-19T08:59:44.800Z,100202.25
2022-10-19T09:02:19.032Z,100204.78
2022-10-19T09:04:49.658Z,100199.09
2022-10-19T09:07:32.561Z,100199.25
2022-10-19T09:10:14.803Z,100208.75
2022-10-19T09:13:03.262Z,100195.34
2022-10-19T09:15:42.435Z,100204.38
2022-10-19T09:18:24.748Z,100206.63
2022-10-19T09:21:12.060Z,100204.78
2022-10-19T09:23:42.085Z,100210.34
2022-10-19T09:26:19.524Z,100212.25
2022-10-19T09:28:54.919Z,100208.94
2022-10-19T09:31:31.847Z,100203.19
2022-10-19T09:34:19.243Z,100210.53
2022-10-19T09:36:51.668Z,100195.44
2022-10-19T09:39:18.806Z,100208.00
2022-10-19T09:41:55.008Z,100195.47
2022-10-19T09:44:25.704Z,100199.91
2022-10-19T09:47:02.878Z,100200.06
2022-10-19T09:49:46.628Z,100201.09
2022-10-19T09:52:23.024Z,100203.00
2022-10-19T09:55:00.319Z,100194.59
2022-10-19T09:57:27.039Z,100197.72
2022-10-19T09:59:53.639Z,100200.50
2022-10-19T10:02:23.710Z,100190.06
2022-10-19T10:05:03.506Z,100190.63
2022-10-19T10:07:35.916Z,100199.94
2022-10-19T10:10:09.939Z,100186.25
2022-10-19T10:12:37.719Z,100176.97
2022-10-19T10:15:06.562Z,100182.94
2022-10-19T10:17:33.855Z,100181.94
2022-10-19T10:20:00.400Z,100182.66
2022-10-19T10:22:29.834Z,100164.19
2022-10-19T10:24:56.937Z,100163.81
2022-10-19T10:27:36.733Z,100175.13
2022-10-19T10:30:08.878Z,100160.03
2022-10-19T10:32:43.259Z,100162.78
2022-10-19T10:35:26.344Z,100157.13
2022-10-19T10:37:53.199Z,100158.34
2022-10-19T10:40:30.737Z,100146.75
2022-10-19T10:43:17.838Z,100147.88
2022-10-19T10:45:47.645Z,100139.69
2022-10-19T10:48:29.580Z,100130.72
2022-10-19T10:51:01.085Z,100130.28
2022-10-19T10:53:35.477Z,100134.16
2022-10-19T10:56:02.628Z,100126.78
2022-10-19T10:58:51.300Z,100129.00
2022-10-19T11:01:23.506Z,100118.66
2022-10-19T11:03:54.485Z,100125.00
2022-10-19T11:09:16.004Z,100116.69
2022-10-19T11:11:45.858Z,100108.81
2022-10-19T11:14:45.889Z,100111.56
2022-10-19T11:17:17.626Z,100119.22
2022-10-19T11:19:45.146Z,100109.88
2022-10-19T11:22:35.983Z,100115.22
2022-10-19T11:25:33.881Z,100107.66
2022-10-19T11:28:12.588Z,100113.03
2022-10-19T11:31:06.831Z,100101.44
2022-10-19T11:36:27.148Z,100094.84
2022-10-19T11:39:08.934Z,100088.34
2022-10-19T11:41:39.451Z,100086.44
2022-10-19T11:44:24.414Z,100079.06
2022-10-19T11:47:29.902Z,100080.16
2022-10-19T11:50:18.222Z,100080.00
2022-10-19T11:53:02.751Z,100076.81
2022-10-19T11:55:58.897Z,100069.50
2022-10-19T11:58:42.461Z,100070.41
2022-10-19T12:01:18.708Z,100060.75
2022-10-19T12:04:07.066Z,100062.94
2022-10-19T12:06:43.773Z,100062.69
2022-10-19T12:09:17.188Z,100056.22
2022-10-19T12:12:05.630Z,100050.50
2022-10-19T12:14:36.700Z,100043.53
2022-10-19T12:17:15.933Z,100039.44
2022-10-19T12:19:45.150Z,100045.50
2022-10-19T12:22:17.323Z,100033.28
2022-10-19T12:24:44.020Z,100018.53
2022-10-19T12:27:15.737Z,100022.19
2022-10-19T12:29:45.770Z,100019.22
2022-10-19T12:32:15.705Z,100018.63
2022-10-19T12:35:03.743Z,100014.63
2022-10-19T12:37:41.237Z,100001.81
2022-10-19T12:40:19.126Z,99996.41
2022-10-19T12:42:57.597Z,100007.28
2022-10-19T12:45:42.914Z,99995.88
2022-10-19T12:48:11.098Z,99996.41
2022-10-19T12:50:49.758Z,99989.63
2022-10-19T12:53:27.957Z,99996.41
2022-10-19T12:56:07.387Z,99983.38
2022-10-19T12:58:55.551Z,99983.38
2022-10-19T13:01:34.391Z,99981.75
2022-10-19T13:04:10.695Z,99982.25
2022-10-19T13:06:41.828Z,99978.94
2022-10-19T13:09:13.143Z,99981.94
2022-10-19T13:12:21.948Z,99974.56
2022-10-19T13:14:55.488Z,99985.91
2022-10-19T13:17:37.245Z,99988.44
2022-10-19T13:20:19.057Z,99987.59
2022-10-19T13:22:49.706Z,99987.09
2022-10-19T13:25:16.153Z,99992.47
2022-10-19T13:27:43.715Z,99988.94
2022-10-19T13:30:42.300Z,99983.16
2022-10-19T13:33:27.249Z,99978.81
2022-10-19T13:35:59.882Z,99989.66
2022-10-19T13:38:29.665Z,99986.47
2022-10-19T13:40:58.043Z,99979.63
2022-10-19T13:43:38.835Z,99981.28
2022-10-19T13:46:08.175Z,99983.47
2022-10-19T13:48:49.941Z,99978.28
2022-10-19T13:51:38.065Z,99978.81
2022-10-19T13:54:17.798Z,99977.22
2022-10-19T13:57:19.629Z,99970.75
2022-10-19T14:00:14.501Z,99963.44
2022-10-19T14:03:09.367Z,99971.56
2022-10-19T14:05:59.741Z,99982.38
2022-10-19T14:08:52.047Z,99987.47
2022-10-19T14:11:27.921Z,99975.81
2022-10-19T14:14:11.398Z,99975.34
2022-10-19T14:16:54.463Z,99976.31
2022-10-19T14:19:46.209Z,99975.06
2022-10-19T14:22:31.244Z,99971.91
2022-10-19T14:25:17.704Z,99986.75
2022-10-19T14:27:45.877Z,99978.88
2022-10-19T14:30:38.608Z,99981.16
2022-10-19T14:33:10.367Z,99983.22
2022-10-19T14:35:39.263Z,99965.91
2022-10-19T14:38:06.681Z,99976.41
2022-10-19T14:40:41.041Z,99987.88
2022-10-19T14:43:19.542Z,99988.47
2022-10-19T14:46:08.638Z,99986.50
2022-10-19T14:48:36.690Z,99991.44
2022-10-19T14:51:05.521Z,99990.22
2022-10-19T14:53:45.929Z,100007.53
2022-10-19T14:56:18.660Z,99992.16
2022-10-19T14:58:57.265Z,100002.03
2022-10-19T15:01:23.971Z,99999.38
2022-10-19T15:03:51.042Z,100011.75
2022-10-19T15:06:21.720Z,100010.59
2022-10-19T15:09:15.475Z,100019.16
2022-10-19T15:11:52.709Z,100010.38
2022-10-19T15:14:22.170Z,100016.31
2022-10-19T15:17:00.263Z,100025.63
2022-10-19T15:22:30.613Z,100036.66
2022-10-19T15:25:06.549Z,100040.31
2022-10-19T15:27:35.558Z,100042.06
2022-10-19T15:30:17.225Z,100049.59
2022-10-19T15:32:48.985Z,100049.47
2022-10-19T15:35:21.812Z,100041.28
2022-10-19T15:37:49.550Z,100051.72
2022-10-19T15:40:26.227Z,100039.03
2022-10-19T15:42:52.999Z,100049.34
2022-10-19T15:45:36.991Z,100061.13
2022-10-19T15:49:01.451Z,100070.38
2022-10-19T15:51:28.366Z,100073.06
2022-10-19T15:53:57.719Z,100077.22
2022-10-19T15:56:26.599Z,100089.19
2022-10-19T15:58:56.183Z,100086.81
2022-10-19T16:01:33.323Z,100090.00
2022-10-19T16:04:00.045Z,100100.78
2022-10-19T16:06:29.317Z,100099.34
2022-10-19T16:08:56.386Z,100094.59
2022-10-19T16:11:23.383Z,100106.53
2022-10-19T16:13:50.326Z,100112.59
2022-10-19T16:20:06.583Z,100113.03
2022-10-19T16:22:33.535Z,100125.88
2022-10-19T16:25:00.201Z,100118.47
2022-10-19T16:27:26.872Z,100140.81
2022-10-19T16:29:54.527Z,100143.25
2022-10-19T19:03:53.788Z,100286.41
2022-10-19T19:06:22.682Z,100279.22
2022-10-19T19:08:49.627Z,100281.88
2022-10-19T19:11:21.715Z,100269.75
2022-10-19T19:13:50.127Z,100284.78
2022-10-19T19:16:16.725Z,100292.41
2022-10-19T19:18:43.573Z,100289.72
2022-10-19T19:21:14.942Z,100289.72
2022-10-19T19:23:41.664Z,100294.06
2022-10-19T19:26:09.321Z,100292.41
2022-10-19T19:28:39.259Z,100292.41
2022-10-19T19:31:09.126Z,100289.31
2022-10-19T19:33:36.062Z,100297.16
2022-10-19T19:36:07.166Z,100302.13
2022-10-19T19:38:34.503Z,100309.34
2022-10-19T19:41:04.552Z,100309.94
2022-10-19T19:43:31.933Z,100313.44
2022-10-19T19:46:04.539Z,100317.16
2022-10-19T19:48:35.383Z,100311.78
2022-10-19T19:51:01.934Z,100316.53
2022-10-19T19:53:28.538Z,100323.34
2022-10-19T19:55:55.062Z,100320.25
2022-10-19T19:58:21.703Z,100318.78
2022-10-19T20:00:48.286Z,100320.66
2022-10-19T20:03:15.827Z,100320.44
2022-10-19T20:05:42.514Z,100322.69
2022-10-19T20:08:09.607Z,100324.56
2022-10-19T20:10:40.336Z,100334.06
2022-10-19T20:13:07.140Z,100336.75
2022-10-19T20:15:33.752Z,100333.25
2022-10-19T20:18:00.530Z,100324.78
2022-10-19T20:20:27.069Z,100329.94
2022-10-19T20:22:53.734Z,100323.09
2022-10-19T20:25:20.277Z,100328.69
2022-10-19T20:27:46.880Z,100327.88
2022-10-19T20:30:13.429Z,100330.34
2022-10-19T20:32:40.092Z,100344.78
2022-10-19T20:35:07.532Z,100340.84
2022-10-19T20:37:34.536Z,100342.31
2022-10-19T20:40:08.148Z,100338.19
2022-10-19T20:42:35.276Z,100340.66
2022-10-19T20:45:02.036Z,100343.75
2022-10-19T20:47:28.665Z,100343.53
2022-10-19T20:49:55.282Z,100351.19
2022-10-19T20:52:21.923Z,100354.28
2022-10-19T20:54:49.284Z,100357.59
2022-10-19T20:57:16.034Z,100355.31
2022-10-19T20:59:43.975Z,100351.19
2022-10-19T21:02:10.948Z,100351.59
2022-10-19T21:04:37.596Z,100351.19
2022-10-19T21:07:05.019Z,100355.31
2022-10-19T21:09:31.952Z,100352.63
2022-10-19T21:11:58.948Z,100354.72
2022-10-19T21:14:28.611Z,100347.25
2022-10-19T21:16:59.111Z,100351.16
2022-10-19T21:19:58.949Z,100352.84
2022-10-19T21:22:25.692Z,100357.38
2022-10-19T21:24:52.391Z,100359.44
2022-10-19T21:27:19.116Z,100349.94
2022-10-19T21:29:45.707Z,100348.72
2022-10-19T21:32:12.319Z,100350.38
2022-10-19T21:34:38.898Z,100352.44
2022-10-19T21:37:05.624Z,100350.34
2022-10-19T21:39:32.290Z,100353.47
2022-10-19T21:41:58.898Z,100351.63
2022-10-19T21:44:25.553Z,100357.38
2022-10-19T21:46:52.290Z,100357.41
2022-10-19T21:49:19.068Z,100360.06
2022-10-19T21:51:50.856Z,100349.13
2022-10-19T21:54:19.404Z,100348.34
2022-10-19T21:56:46.622Z,100352.25
2022-10-19T21:59:13.512Z,100338.00
2022-10-19T22:01:41.444Z,100353.28
2022-10-19T22:04:12.307Z,100344.59
2022-10-19T22:06:39.584Z,100334.91
2022-10-19T22:09:08.935Z,100347.28
2022-10-19T22:11:35.649Z,100340.88
2022-10-19T22:14:03.854Z,100336.78
2022-10-19T22:16:31.484Z,100337.16
2022-10-19T22:18:58.370Z,100334.50
2022-10-19T22:21:28.457Z,100338.00
2022-10-19T22:24:00.743Z,100328.28
2022-10-19T22:26:32.252Z,100334.69
2022-10-19T22:29:00.324Z,100330.97
2022-10-19T22:31:27.907Z,100331.16
2022-10-19T22:33:54.719Z,100326.63
2022-10-19T22:36:21.372Z,100326.44
2022-10-19T22:38:48.126Z,100323.13
2022-10-19T22:41:14.852Z,100320.03
2022-10-19T22:43:41.494Z,100334.63
2022-10-19T22:46:08.270Z,100342.91
2022-10-19T22:48:34.948Z,100340.84
2022-10-19T22:51:01.555Z,100335.47
2022-10-19T22:53:28.179Z,100341.84
2022-10-19T22:55:54.781Z,100336.25
2022-10-19T22:58:21.309Z,100332.31
2022-10-19T23:01:53.610Z,100337.09
2022-10-19T23:04:21.292Z,100337.09
2022-10-19T23:06:48.355Z,100341.13
2022-10-19T23:09:14.881Z,100334.44
2022-10-19T23:11:41.658Z,100336.09
2022-10-19T23:14:08.275Z,100336.50
2022-10-19T23:16:34.833Z,100337.94
2022-10-19T23:19:01.382Z,100330.50
2022-10-19T23:21:28.029Z,100338.72
2022-10-19T23:23:54.579Z,100345.50
2022-10-19T23:26:21.707Z,100349.03
2022-10-19T23:28:49.849Z,100343.00
2022-10-19T23:31:19.065Z,100340.09
2022-10-19T23:33:46.603Z,100336.59
2022-10-19T23:36:18.634Z,100340.94
2022-10-19T23:38:46.470Z,100330.53
2022-10-19T23:41:13.770Z,100335.63
2022-10-19T23:43:41.007Z,100338.66
2022-10-19T23:46:07.744Z,100354.88
2022-10-19T23:48:34.668Z,100345.59
2022-10-19T23:51:10.385Z,100345.78
2022-10-19T23:53:41.039Z,100355.44
2022-10-19T23:56:14.078Z,100352.31
2022-10-19T23:58:40.878Z,100355.19
